sensor_id;sensor_type;location;lat;lon;timestamp;P1;durP1;ratioP1;P2;durP2;ratioP2
40012;SDS011;37387;42.672;23.334;2023-05-10T00:00:20;11.6;;;6.2;;
40012;SDS011;37387;42.672;23.334;2023-05-10T00:01:20;11.3;;;6.5;;
40012;SDS011;37387;42.672;23.334;2023-05-10T00:02:20;10.2;;;6.1;;
40012;SDS011;37387;42.672;23.334;2023-05-10T00:03:20;10.2;;;6.5;;
40012;SDS011;37387;42.672;23.334;2023-05-10T00:04:20;12.5;;;6.6;;
40012;SDS011;37387;42.672;23.334;2023-05-10T00:06:20;12.8;;;10.3;;
40012;SDS011;37387;42.672;23.334;2023-05-10T00:07:20;11.3;;;6.8;;
40012;SDS011;37387;42.672;23.334;2023-05-10T00:09:20;12.0;;;7.1;;
40012;SDS011;37387;42.672;23.334;2023-05-10T00:10:20;13.1;;;6.8;;
40012;SDS011;37387;42.672;23.334;2023-05-10T00:11:20;13.1;;;7.1;;
40012;SDS011;37387;42.672;23.334;2023-05-10T00:12:20;11.6;;;6.7;;
40012;SDS011;37387;42.672;23.334;2023-05-10T00:13:20;11.4;;;7.2;;
40012;SDS011;37387;42.672;23.334;2023-05-10T00:14:20;13.1;;;6.0;;
40012;SDS011;37387;42.672;23.334;2023-05-10T00:15:20;10.2;;;6.2;;
40012;SDS011;37387;42.672;23.334;2023-05-10T00:17:20;14.4;;;5.9;;
40012;SDS011;37387;42.672;23.334;2023-05-10T00:18:20;14.4;;;6.4;;
40012;SDS011;37387;42.672;23.334;2023-05-10T00:19:20;10.1;;;6.1;;
40012;SDS011;37387;42.672;23.334;2023-05-10T00:21:20;10.9;;;6.0;;
40012;SDS011;37387;42.672;23.334;2023-05-10T00:22:20;9.5;;;5.5;;
40012;SDS011;37387;42.672;23.334;2023-05-10T00:23:20;12.5;;;7.0;;
40012;SDS011;37387;42.672;23.334;2023-05-10T00:24:20;10.5;;;5.9;;
40012;SDS011;37387;42.672;23.334;2023-05-10T00:25:19;10.5;;;6.4;;
40012;SDS011;37387;42.672;23.334;2023-05-10T00:26:19;11.0;;;6.6;;
40012;SDS011;37387;42.672;23.334;2023-05-10T00:27:19;11.3;;;7.2;;
40012;SDS011;37387;42.672;23.334;2023-05-10T00:28:19;11.6;;;5.9;;
40012;SDS011;37387;42.672;23.334;2023-05-10T00:29:19;12.0;;;5.7;;
40012;SDS011;37387;42.672;23.334;2023-05-10T00:30:20;10.7;;;6.7;;
40012;SDS011;37387;42.672;23.334;2023-05-10T00:31:19;12.8;;;7.2;;
40012;SDS011;37387;42.672;23.334;2023-05-10T00:32:19;12.3;;;6.8;;
40012;SDS011;37387;42.672;23.334;2023-05-10T00:33:19;13.8;;;7.5;;
40012;SDS011;37387;42.672;23.334;2023-05-10T00:34:19;10.4;;;6.9;;
40012;SDS011;37387;42.672;23.334;2023-05-10T00:35:19;10.4;;;6.7;;
40012;SDS011;37387;42.672;23.334;2023-05-10T00:36:19;10.3;;;6.1;;
40012;SDS011;37387;42.672;23.334;2023-05-10T00:37:19;10.3;;;8.3;;
40012;SDS011;37387;42.672;23.334;2023-05-10T00:38:19;11.4;;;6.9;;
40012;SDS011;37387;42.672;23.334;2023-05-10T00:39:19;11.4;;;8.1;;
40012;SDS011;37387;42.672;23.334;2023-05-10T00:40:19;13.4;;;6.2;;
40012;SDS011;37387;42.672;23.334;2023-05-10T00:41:19;11.7;;;7.3;;
40012;SDS011;37387;42.672;23.334;2023-05-10T00:42:19;14.2;;;6.5;;
40012;SDS011;37387;42.672;23.334;2023-05-10T00:43:19;14.2;;;7.0;;
40012;SDS011;37387;42.672;23.334;2023-05-10T00:44:19;12.0;;;6.9;;
40012;SDS011;37387;42.672;23.334;2023-05-10T00:45:19;11.8;;;6.7;;
40012;SDS011;37387;42.672;23.334;2023-05-10T00:46:19;12.6;;;7.3;;
40012;SDS011;37387;42.672;23.334;2023-05-10T00:47:19;12.6;;;6.3;;
40012;SDS011;37387;42.672;23.334;2023-05-10T00:48:19;15.4;;;8.2;;
40012;SDS011;37387;42.672;23.334;2023-05-10T00:49:19;15.4;;;6.5;;
40012;SDS011;37387;42.672;23.334;2023-05-10T00:50:18;12.1;;;7.1;;
40012;SDS011;37387;42.672;23.334;2023-05-10T00:51:18;14.6;;;6.4;;
40012;SDS011;37387;42.672;23.334;2023-05-10T00:52:19;12.6;;;7.4;;
40012;SDS011;37387;42.672;23.334;2023-05-10T00:53:18;12.6;;;7.5;;
40012;SDS011;37387;42.672;23.334;2023-05-10T00:54:18;13.6;;;6.9;;
40012;SDS011;37387;42.672;23.334;2023-05-10T00:55:18;13.1;;;8.1;;
40012;SDS011;37387;42.672;23.334;2023-05-10T00:56:18;12.6;;;7.7;;
40012;SDS011;37387;42.672;23.334;2023-05-10T00:57:18;13.9;;;7.8;;
40012;SDS011;37387;42.672;23.334;2023-05-10T00:59:18;14.2;;;8.1;;
40012;SDS011;37387;42.672;23.334;2023-05-10T01:00:18;14.3;;;7.8;;
40012;SDS011;37387;42.672;23.334;2023-05-10T01:01:18;14.3;;;8.4;;
40012;SDS011;37387;42.672;23.334;2023-05-10T01:02:18;15.0;;;8.0;;
40012;SDS011;37387;42.672;23.334;2023-05-10T01:03:18;13.5;;;8.3;;
40012;SDS011;37387;42.672;23.334;2023-05-10T01:04:18;14.4;;;8.4;;
40012;SDS011;37387;42.672;23.334;2023-05-10T01:05:18;12.9;;;7.5;;
40012;SDS011;37387;42.672;23.334;2023-05-10T01:06:18;10.8;;;6.5;;
40012;SDS011;37387;42.672;23.334;2023-05-10T01:07:18;10.8;;;8.1;;
40012;SDS011;37387;42.672;23.334;2023-05-10T01:08:18;13.4;;;7.7;;
40012;SDS011;37387;42.672;23.334;2023-05-10T01:09:18;15.6;;;8.2;;
40012;SDS011;37387;42.672;23.334;2023-05-10T01:11:18;14.4;;;8.5;;
40012;SDS011;37387;42.672;23.334;2023-05-10T01:12:18;14.8;;;8.6;;
40012;SDS011;37387;42.672;23.334;2023-05-10T01:13:18;14.9;;;7.3;;
40012;SDS011;37387;42.672;23.334;2023-05-10T01:14:18;15.2;;;8.5;;
40012;SDS011;37387;42.672;23.334;2023-05-10T01:15:17;15.2;;;8.0;;
40012;SDS011;37387;42.672;23.334;2023-05-10T01:16:17;13.1;;;6.4;;
40012;SDS011;37387;42.672;23.334;2023-05-10T01:17:17;16.3;;;8.0;;
40012;SDS011;37387;42.672;23.334;2023-05-10T01:18:17;14.3;;;8.7;;
40012;SDS011;37387;42.672;23.334;2023-05-10T01:19:19;14.6;;;8.0;;
40012;SDS011;37387;42.672;23.334;2023-05-10T01:20:17;14.6;;;6.9;;
40012;SDS011;37387;42.672;23.334;2023-05-10T01:21:19;12.8;;;7.2;;
40012;SDS011;37387;42.672;23.334;2023-05-10T01:22:25;12.8;;;9.2;;
40012;SDS011;37387;42.672;23.334;2023-05-10T01:23:23;13.4;;;7.5;;
40012;SDS011;37387;42.672;23.334;2023-05-10T01:25:22;15.8;;;9.1;;
40012;SDS011;37387;42.672;23.334;2023-05-10T01:27:19;14.5;;;7.6;;
40012;SDS011;37387;42.672;23.334;2023-05-10T01:28:25;13.1;;;8.7;;
40012;SDS011;37387;42.672;23.334;2023-05-10T01:30:26;13.0;;;7.8;;
40012;SDS011;37387;42.672;23.334;2023-05-10T01:31:19;14.4;;;8.6;;
40012;SDS011;37387;42.672;23.334;2023-05-10T01:32:20;9.6;;;6.4;;
40012;SDS011;37387;42.672;23.334;2023-05-10T01:33:18;9.6;;;8.4;;
40012;SDS011;37387;42.672;23.334;2023-05-10T01:34:18;13.6;;;8.0;;
40012;SDS011;37387;42.672;23.334;2023-05-10T01:35:17;13.6;;;7.9;;
40012;SDS011;37387;42.672;23.334;2023-05-10T01:36:19;13.7;;;8.1;;
40012;SDS011;37387;42.672;23.334;2023-05-10T01:37:18;13.7;;;6.1;;
40012;SDS011;37387;42.672;23.334;2023-05-10T01:38:17;11.6;;;7.0;;
40012;SDS011;37387;42.672;23.334;2023-05-10T01:39:17;11.6;;;6.5;;
40012;SDS011;37387;42.672;23.334;2023-05-10T01:40:18;9.4;;;6.0;;
40012;SDS011;37387;42.672;23.334;2023-05-10T01:41:17;9.4;;;7.1;;
40012;SDS011;37387;42.672;23.334;2023-05-10T01:42:17;12.3;;;6.5;;
40012;SDS011;37387;42.672;23.334;2023-05-10T01:43:17;10.8;;;6.0;;
40012;SDS011;37387;42.672;23.334;2023-05-10T01:44:17;10.8;;;6.7;;
40012;SDS011;37387;42.672;23.334;2023-05-10T01:46:17;11.3;;;6.8;;
40012;SDS011;37387;42.672;23.334;2023-05-10T01:47:22;11.3;;;5.1;;
40012;SDS011;37387;42.672;23.334;2023-05-10T01:48:16;10.8;;;6.5;;
40012;SDS011;37387;42.672;23.334;2023-05-10T01:49:19;10.8;;;5.7;;
40012;SDS011;37387;42.672;23.334;2023-05-10T01:50:17;8.2;;;4.2;;
40012;SDS011;37387;42.672;23.334;2023-05-10T01:51:17;10.2;;;6.1;;
40012;SDS011;37387;42.672;23.334;2023-05-10T01:52:16;11.6;;;6.2;;
40012;SDS011;37387;42.672;23.334;2023-05-10T01:55:16;9.8;;;5.6;;
40012;SDS011;37387;42.672;23.334;2023-05-10T01:56:16;8.3;;;4.8;;
40012;SDS011;37387;42.672;23.334;2023-05-10T01:57:16;10.9;;;6.0;;
40012;SDS011;37387;42.672;23.334;2023-05-10T01:58:17;8.0;;;5.1;;
40012;SDS011;37387;42.672;23.334;2023-05-10T01:59:16;8.0;;;5.7;;
40012;SDS011;37387;42.672;23.334;2023-05-10T02:00:15;10.2;;;4.5;;
40012;SDS011;37387;42.672;23.334;2023-05-10T02:01:16;7.1;;;5.2;;
40012;SDS011;37387;42.672;23.334;2023-05-10T02:02:15;5.9;;;3.8;;
40012;SDS011;37387;42.672;23.334;2023-05-10T02:03:15;5.9;;;6.1;;
40012;SDS011;37387;42.672;23.334;2023-05-10T02:04:16;10.0;;;4.6;;
40012;SDS011;37387;42.672;23.334;2023-05-10T02:05:16;8.1;;;5.0;;
40012;SDS011;37387;42.672;23.334;2023-05-10T02:06:15;8.1;;;5.4;;
40012;SDS011;37387;42.672;23.334;2023-05-10T02:07:15;9.5;;;5.0;;
40012;SDS011;37387;42.672;23.334;2023-05-10T02:08:15;8.2;;;4.6;;
40012;SDS011;37387;42.672;23.334;2023-05-10T02:09:15;6.8;;;4.1;;
40012;SDS011;37387;42.672;23.334;2023-05-10T02:10:15;8.0;;;5.1;;
40012;SDS011;37387;42.672;23.334;2023-05-10T02:11:15;10.9;;;4.5;;
40012;SDS011;37387;42.672;23.334;2023-05-10T02:12:15;8.3;;;5.5;;
40012;SDS011;37387;42.672;23.334;2023-05-10T02:13:15;8.3;;;4.9;;
40012;SDS011;37387;42.672;23.334;2023-05-10T02:14:15;8.4;;;5.7;;
40012;SDS011;37387;42.672;23.334;2023-05-10T02:15:16;8.4;;;3.3;;
40012;SDS011;37387;42.672;23.334;2023-05-10T02:16:15;5.3;;;3.8;;
40012;SDS011;37387;42.672;23.334;2023-05-10T02:17:15;7.0;;;4.0;;
40012;SDS011;37387;42.672;23.334;2023-05-10T02:18:15;7.0;;;4.4;;
40012;SDS011;37387;42.672;23.334;2023-05-10T02:19:15;7.4;;;4.2;;
40012;SDS011;37387;42.672;23.334;2023-05-10T02:20:15;7.1;;;3.7;;
40012;SDS011;37387;42.672;23.334;2023-05-10T02:21:14;5.8;;;3.5;;
40012;SDS011;37387;42.672;23.334;2023-05-10T02:23:14;5.0;;;3.7;;
40012;SDS011;37387;42.672;23.334;2023-05-10T02:24:14;5.0;;;3.1;;
40012;SDS011;37387;42.672;23.334;2023-05-10T02:25:14;9.0;;;4.0;;
40012;SDS011;37387;42.672;23.334;2023-05-10T02:26:14;7.7;;;4.7;;
40012;SDS011;37387;42.672;23.334;2023-05-10T02:27:14;4.8;;;3.2;;
40012;SDS011;37387;42.672;23.334;2023-05-10T02:28:14;6.4;;;3.6;;
40012;SDS011;37387;42.672;23.334;2023-05-10T02:29:14;4.0;;;2.4;;
40012;SDS011;37387;42.672;23.334;2023-05-10T02:30:14;4.0;;;3.8;;
40012;SDS011;37387;42.672;23.334;2023-05-10T02:31:14;7.6;;;4.0;;
40012;SDS011;37387;42.672;23.334;2023-05-10T02:32:14;4.4;;;2.6;;
40012;SDS011;37387;42.672;23.334;2023-05-10T02:33:14;5.6;;;3.7;;
40012;SDS011;37387;42.672;23.334;2023-05-10T02:34:14;4.6;;;3.0;;
40012;SDS011;37387;42.672;23.334;2023-05-10T02:35:14;4.6;;;3.3;;
40012;SDS011;37387;42.672;23.334;2023-05-10T02:36:14;5.0;;;2.9;;
40012;SDS011;37387;42.672;23.334;2023-05-10T02:37:14;5.0;;;3.7;;
40012;SDS011;37387;42.672;23.334;2023-05-10T02:38:14;5.7;;;3.0;;
40012;SDS011;37387;42.672;23.334;2023-05-10T02:39:14;5.2;;;3.3;;
40012;SDS011;37387;42.672;23.334;2023-05-10T02:40:13;4.2;;;3.0;;
40012;SDS011;37387;42.672;23.334;2023-05-10T02:41:13;4.4;;;2.9;;
40012;SDS011;37387;42.672;23.334;2023-05-10T02:42:14;4.4;;;2.6;;
40012;SDS011;37387;42.672;23.334;2023-05-10T02:43:14;3.5;;;3.1;;
40012;SDS011;37387;42.672;23.334;2023-05-10T02:44:14;5.1;;;3.0;;
40012;SDS011;37387;42.672;23.334;2023-05-10T02:45:17;5.1;;;3.1;;
40012;SDS011;37387;42.672;23.334;2023-05-10T02:46:13;5.3;;;3.0;;
40012;SDS011;37387;42.672;23.334;2023-05-10T02:47:13;5.3;;;3.1;;
40012;SDS011;37387;42.672;23.334;2023-05-10T02:48:13;4.6;;;2.7;;
40012;SDS011;37387;42.672;23.334;2023-05-10T02:50:13;4.7;;;2.9;;
40012;SDS011;37387;42.672;23.334;2023-05-10T02:51:13;4.7;;;3.0;;
40012;SDS011;37387;42.672;23.334;2023-05-10T02:52:13;4.4;;;2.7;;
40012;SDS011;37387;42.672;23.334;2023-05-10T02:53:15;4.7;;;2.8;;
40012;SDS011;37387;42.672;23.334;2023-05-10T02:56:13;3.3;;;2.5;;
40012;SDS011;37387;42.672;23.334;2023-05-10T02:57:14;3.9;;;2.2;;
40012;SDS011;37387;42.672;23.334;2023-05-10T02:58:12;3.9;;;2.7;;
40012;SDS011;37387;42.672;23.334;2023-05-10T02:59:12;5.7;;;2.9;;
40012;SDS011;37387;42.672;23.334;2023-05-10T03:00:13;5.2;;;3.5;;
40012;SDS011;37387;42.672;23.334;2023-05-10T03:01:12;5.2;;;2.4;;
40012;SDS011;37387;42.672;23.334;2023-05-10T03:03:12;4.6;;;3.2;;
40012;SDS011;37387;42.672;23.334;2023-05-10T03:04:12;5.3;;;3.1;;
40012;SDS011;37387;42.672;23.334;2023-05-10T03:05:12;4.0;;;2.5;;
40012;SDS011;37387;42.672;23.334;2023-05-10T03:06:12;4.0;;;2.8;;
40012;SDS011;37387;42.672;23.334;2023-05-10T03:07:12;5.5;;;2.4;;
40012;SDS011;37387;42.672;23.334;2023-05-10T03:08:12;4.7;;;3.0;;
40012;SDS011;37387;42.672;23.334;2023-05-10T03:09:12;4.7;;;2.3;;
40012;SDS011;37387;42.672;23.334;2023-05-10T03:10:12;4.4;;;3.4;;
40012;SDS011;37387;42.672;23.334;2023-05-10T03:11:16;4.4;;;2.5;;
40012;SDS011;37387;42.672;23.334;2023-05-10T03:12:14;3.9;;;2.8;;
40012;SDS011;37387;42.672;23.334;2023-05-10T03:13:13;5.9;;;3.0;;
40012;SDS011;37387;42.672;23.334;2023-05-10T03:14:15;5.9;;;3.3;;
40012;SDS011;37387;42.672;23.334;2023-05-10T03:15:13;5.8;;;3.2;;
40012;SDS011;37387;42.672;23.334;2023-05-10T03:16:12;5.7;;;3.5;;
40012;SDS011;37387;42.672;23.334;2023-05-10T03:17:14;5.7;;;3.3;;
40012;SDS011;37387;42.672;23.334;2023-05-10T03:18:12;5.6;;;3.5;;
40012;SDS011;37387;42.672;23.334;2023-05-10T03:19:12;4.5;;;3.0;;
40012;SDS011;37387;42.672;23.334;2023-05-10T03:20:12;6.9;;;3.8;;
40012;SDS011;37387;42.672;23.334;2023-05-10T03:21:11;6.9;;;3.3;;
40012;SDS011;37387;42.672;23.334;2023-05-10T03:22:11;5.0;;;2.5;;
40012;SDS011;37387;42.672;23.334;2023-05-10T03:23:12;3.9;;;3.3;;
40012;SDS011;37387;42.672;23.334;2023-05-10T03:26:12;7.5;;;3.1;;
40012;SDS011;37387;42.672;23.334;2023-05-10T03:27:11;5.2;;;3.2;;
40012;SDS011;37387;42.672;23.334;2023-05-10T03:28:11;5.4;;;3.0;;
40012;SDS011;37387;42.672;23.334;2023-05-10T03:30:12;5.1;;;3.3;;
40012;SDS011;37387;42.672;23.334;2023-05-10T03:31:11;4.6;;;2.9;;
40012;SDS011;37387;42.672;23.334;2023-05-10T03:32:11;4.9;;;3.4;;
40012;SDS011;37387;42.672;23.334;2023-05-10T03:33:11;4.9;;;2.9;;
40012;SDS011;37387;42.672;23.334;2023-05-10T03:34:11;6.9;;;3.3;;
40012;SDS011;37387;42.672;23.334;2023-05-10T03:36:11;5.3;;;3.7;;
40012;SDS011;37387;42.672;23.334;2023-05-10T03:37:11;3.9;;;2.9;;
40012;SDS011;37387;42.672;23.334;2023-05-10T03:38:11;4.4;;;3.1;;
40012;SDS011;37387;42.672;23.334;2023-05-10T03:39:10;5.4;;;3.0;;
40012;SDS011;37387;42.672;23.334;2023-05-10T03:40:11;4.9;;;2.8;;
40012;SDS011;37387;42.672;23.334;2023-05-10T03:41:11;4.9;;;3.1;;
40012;SDS011;37387;42.672;23.334;2023-05-10T03:42:10;5.5;;;3.5;;
40012;SDS011;37387;42.672;23.334;2023-05-10T03:43:10;5.6;;;3.2;;
40012;SDS011;37387;42.672;23.334;2023-05-10T03:44:10;4.6;;;2.8;;
40012;SDS011;37387;42.672;23.334;2023-05-10T03:45:10;4.6;;;3.2;;
40012;SDS011;37387;42.672;23.334;2023-05-10T03:46:10;5.2;;;3.1;;
40012;SDS011;37387;42.672;23.334;2023-05-10T03:47:10;5.9;;;3.5;;
40012;SDS011;37387;42.672;23.334;2023-05-10T03:48:10;6.7;;;3.9;;
40012;SDS011;37387;42.672;23.334;2023-05-10T03:49:10;6.7;;;3.6;;
40012;SDS011;37387;42.672;23.334;2023-05-10T03:50:10;5.9;;;3.9;;
40012;SDS011;37387;42.672;23.334;2023-05-10T03:51:10;7.1;;;4.4;;
40012;SDS011;37387;42.672;23.334;2023-05-10T03:52:10;8.4;;;3.7;;
40012;SDS011;37387;42.672;23.334;2023-05-10T03:53:10;5.6;;;3.3;;
40012;SDS011;37387;42.672;23.334;2023-05-10T03:54:10;5.6;;;3.0;;
40012;SDS011;37387;42.672;23.334;2023-05-10T03:55:10;6.4;;;4.1;;
40012;SDS011;37387;42.672;23.334;2023-05-10T03:56:10;6.2;;;3.4;;
40012;SDS011;37387;42.672;23.334;2023-05-10T03:57:10;6.4;;;4.0;;
40012;SDS011;37387;42.672;23.334;2023-05-10T03:58:10;5.8;;;3.6;;
40012;SDS011;37387;42.672;23.334;2023-05-10T03:59:10;6.1;;;3.8;;
40012;SDS011;37387;42.672;23.334;2023-05-10T04:00:10;4.2;;;3.1;;
40012;SDS011;37387;42.672;23.334;2023-05-10T04:01:10;5.8;;;3.5;;
40012;SDS011;37387;42.672;23.334;2023-05-10T04:02:10;4.2;;;2.9;;
40012;SDS011;37387;42.672;23.334;2023-05-10T04:03:10;4.2;;;2.8;;
40012;SDS011;37387;42.672;23.334;2023-05-10T04:04:10;6.2;;;3.6;;
40012;SDS011;37387;42.672;23.334;2023-05-10T04:07:09;5.4;;;3.5;;
40012;SDS011;37387;42.672;23.334;2023-05-10T04:08:09;6.0;;;3.7;;
40012;SDS011;37387;42.672;23.334;2023-05-10T04:10:10;5.7;;;3.5;;
40012;SDS011;37387;42.672;23.334;2023-05-10T04:11:10;5.7;;;3.9;;
40012;SDS011;37387;42.672;23.334;2023-05-10T04:12:09;6.5;;;3.3;;
40012;SDS011;37387;42.672;23.334;2023-05-10T04:13:09;6.5;;;3.9;;
40012;SDS011;37387;42.672;23.334;2023-05-10T04:14:09;6.0;;;3.6;;
40012;SDS011;37387;42.672;23.334;2023-05-10T04:15:09;7.7;;;3.5;;
40012;SDS011;37387;42.672;23.334;2023-05-10T04:16:09;7.4;;;3.8;;
40012;SDS011;37387;42.672;23.334;2023-05-10T04:17:09;7.4;;;3.7;;
40012;SDS011;37387;42.672;23.334;2023-05-10T04:19:09;4.9;;;3.4;;
40012;SDS011;37387;42.672;23.334;2023-05-10T04:20:09;4.9;;;3.7;;
40012;SDS011;37387;42.672;23.334;2023-05-10T04:21:12;6.5;;;3.6;;
40012;SDS011;37387;42.672;23.334;2023-05-10T04:23:09;7.2;;;4.0;;
40012;SDS011;37387;42.672;23.334;2023-05-10T04:24:09;5.3;;;3.2;;
40012;SDS011;37387;42.672;23.334;2023-05-10T04:25:09;5.1;;;3.1;;
40012;SDS011;37387;42.672;23.334;2023-05-10T04:26:09;5.1;;;3.8;;
40012;SDS011;37387;42.672;23.334;2023-05-10T04:27:09;6.6;;;3.5;;
40012;SDS011;37387;42.672;23.334;2023-05-10T04:28:09;5.4;;;3.4;;
40012;SDS011;37387;42.672;23.334;2023-05-10T04:29:09;5.4;;;4.3;;
40012;SDS011;37387;42.672;23.334;2023-05-10T04:30:09;6.1;;;4.0;;
40012;SDS011;37387;42.672;23.334;2023-05-10T04:31:09;6.1;;;3.3;;
40012;SDS011;37387;42.672;23.334;2023-05-10T04:32:08;5.8;;;4.1;;
40012;SDS011;37387;42.672;23.334;2023-05-10T04:33:08;5.8;;;3.9;;
40012;SDS011;37387;42.672;23.334;2023-05-10T04:35:08;7.2;;;4.3;;
40012;SDS011;37387;42.672;23.334;2023-05-10T04:36:08;8.5;;;4.1;;
40012;SDS011;37387;42.672;23.334;2023-05-10T04:37:08;8.5;;;4.5;;
40012;SDS011;37387;42.672;23.334;2023-05-10T04:38:08;8.5;;;3.9;;
40012;SDS011;37387;42.672;23.334;2023-05-10T04:39:08;7.3;;;4.0;;
40012;SDS011;37387;42.672;23.334;2023-05-10T04:40:08;6.6;;;4.3;;
40012;SDS011;37387;42.672;23.334;2023-05-10T04:41:08;7.3;;;4.1;;
40012;SDS011;37387;42.672;23.334;2023-05-10T04:42:08;6.8;;;3.6;;
40012;SDS011;37387;42.672;23.334;2023-05-10T04:43:08;6.8;;;4.4;;
40012;SDS011;37387;42.672;23.334;2023-05-10T04:44:08;7.2;;;4.5;;
40012;SDS011;37387;42.672;23.334;2023-05-10T04:45:08;8.1;;;4.7;;
40012;SDS011;37387;42.672;23.334;2023-05-10T04:46:08;7.1;;;4.0;;
40012;SDS011;37387;42.672;23.334;2023-05-10T04:47:08;8.9;;;4.2;;
40012;SDS011;37387;42.672;23.334;2023-05-10T04:48:08;7.4;;;4.0;;
40012;SDS011;37387;42.672;23.334;2023-05-10T04:49:08;7.4;;;4.6;;
40012;SDS011;37387;42.672;23.334;2023-05-10T04:50:08;6.3;;;3.7;;
40012;SDS011;37387;42.672;23.334;2023-05-10T04:51:08;5.8;;;4.0;;
40012;SDS011;37387;42.672;23.334;2023-05-10T04:52:08;6.9;;;4.3;;
40012;SDS011;37387;42.672;23.334;2023-05-10T04:53:08;6.9;;;4.4;;
40012;SDS011;37387;42.672;23.334;2023-05-10T04:54:08;5.3;;;3.3;;
40012;SDS011;37387;42.672;23.334;2023-05-10T04:55:08;5.3;;;3.8;;
40012;SDS011;37387;42.672;23.334;2023-05-10T04:56:07;6.2;;;4.3;;
40012;SDS011;37387;42.672;23.334;2023-05-10T05:00:08;7.7;;;3.9;;
40012;SDS011;37387;42.672;23.334;2023-05-10T05:01:07;7.4;;;4.9;;
40012;SDS011;37387;42.672;23.334;2023-05-10T05:02:07;9.4;;;5.7;;
40012;SDS011;37387;42.672;23.334;2023-05-10T05:03:07;6.7;;;4.6;;
40012;SDS011;37387;42.672;23.334;2023-05-10T05:04:07;7.2;;;4.3;;
40012;SDS011;37387;42.672;23.334;2023-05-10T05:05:07;9.9;;;5.2;;
40012;SDS011;37387;42.672;23.334;2023-05-10T05:06:07;9.2;;;5.1;;
40012;SDS011;37387;42.672;23.334;2023-05-10T05:07:07;6.8;;;4.3;;
40012;SDS011;37387;42.672;23.334;2023-05-10T05:08:07;6.8;;;4.6;;
40012;SDS011;37387;42.672;23.334;2023-05-10T05:09:07;9.1;;;4.9;;
40012;SDS011;37387;42.672;23.334;2023-05-10T05:11:07;9.4;;;4.5;;
40012;SDS011;37387;42.672;23.334;2023-05-10T05:12:07;7.6;;;4.8;;
40012;SDS011;37387;42.672;23.334;2023-05-10T05:13:07;7.5;;;4.7;;
40012;SDS011;37387;42.672;23.334;2023-05-10T05:14:07;7.5;;;4.4;;
40012;SDS011;37387;42.672;23.334;2023-05-10T05:16:06;12.6;;;5.7;;
40012;SDS011;37387;42.672;23.334;2023-05-10T05:17:06;6.5;;;4.1;;
40012;SDS011;37387;42.672;23.334;2023-05-10T05:18:06;6.5;;;4.6;;
40012;SDS011;37387;42.672;23.334;2023-05-10T05:19:06;6.8;;;4.7;;
40012;SDS011;37387;42.672;23.334;2023-05-10T05:20:07;7.6;;;4.8;;
40012;SDS011;37387;42.672;23.334;2023-05-10T05:21:13;8.0;;;4.2;;
40012;SDS011;37387;42.672;23.334;2023-05-10T05:22:06;8.3;;;4.9;;
40012;SDS011;37387;42.672;23.334;2023-05-10T05:23:06;6.2;;;3.3;;
40012;SDS011;37387;42.672;23.334;2023-05-10T05:24:06;6.2;;;3.5;;
40012;SDS011;37387;42.672;23.334;2023-05-10T05:25:06;10.0;;;5.4;;
40012;SDS011;37387;42.672;23.334;2023-05-10T05:26:06;10.0;;;5.3;;
40012;SDS011;37387;42.672;23.334;2023-05-10T05:27:06;8.7;;;4.2;;
40012;SDS011;37387;42.672;23.334;2023-05-10T05:28:06;7.6;;;4.0;;
40012;SDS011;37387;42.672;23.334;2023-05-10T05:29:06;9.6;;;5.2;;
40012;SDS011;37387;42.672;23.334;2023-05-10T05:30:06;8.9;;;5.0;;
40012;SDS011;37387;42.672;23.334;2023-05-10T05:31:06;8.9;;;4.8;;
40012;SDS011;37387;42.672;23.334;2023-05-10T05:33:06;8.5;;;4.2;;
40012;SDS011;37387;42.672;23.334;2023-05-10T05:34:06;7.0;;;4.6;;
40012;SDS011;37387;42.672;23.334;2023-05-10T05:35:06;11.3;;;5.5;;
40012;SDS011;37387;42.672;23.334;2023-05-10T05:36:06;11.3;;;4.2;;
40012;SDS011;37387;42.672;23.334;2023-05-10T05:37:05;6.8;;;5.5;;
40012;SDS011;37387;42.672;23.334;2023-05-10T05:38:05;9.1;;;4.8;;
40012;SDS011;37387;42.672;23.334;2023-05-10T05:39:05;9.1;;;4.7;;
40012;SDS011;37387;42.672;23.334;2023-05-10T05:40:06;8.7;;;5.2;;
40012;SDS011;37387;42.672;23.334;2023-05-10T05:41:05;9.4;;;5.8;;
40012;SDS011;37387;42.672;23.334;2023-05-10T05:42:05;9.4;;;3.5;;
40012;SDS011;37387;42.672;23.334;2023-05-10T05:43:05;8.0;;;5.3;;
40012;SDS011;37387;42.672;23.334;2023-05-10T05:44:05;8.0;;;5.6;;
40012;SDS011;37387;42.672;23.334;2023-05-10T05:45:06;9.3;;;4.3;;
40012;SDS011;37387;42.672;23.334;2023-05-10T05:46:05;9.3;;;5.4;;
40012;SDS011;37387;42.672;23.334;2023-05-10T05:47:05;9.7;;;5.2;;
40012;SDS011;37387;42.672;23.334;2023-05-10T05:48:05;9.6;;;5.9;;
40012;SDS011;37387;42.672;23.334;2023-05-10T05:49:05;9.1;;;5.8;;
40012;SDS011;37387;42.672;23.334;2023-05-10T05:50:05;9.1;;;5.4;;
40012;SDS011;37387;42.672;23.334;2023-05-10T05:51:05;9.0;;;5.5;;
40012;SDS011;37387;42.672;23.334;2023-05-10T05:52:05;8.0;;;4.7;;
40012;SDS011;37387;42.672;23.334;2023-05-10T05:53:05;9.2;;;5.6;;
40012;SDS011;37387;42.672;23.334;2023-05-10T05:54:05;9.2;;;7.0;;
40012;SDS011;37387;42.672;23.334;2023-05-10T05:55:05;9.8;;;5.6;;
40012;SDS011;37387;42.672;23.334;2023-05-10T05:57:04;9.5;;;5.8;;
40012;SDS011;37387;42.672;23.334;2023-05-10T05:58:04;9.6;;;5.6;;
40012;SDS011;37387;42.672;23.334;2023-05-10T05:59:04;9.6;;;5.5;;
40012;SDS011;37387;42.672;23.334;2023-05-10T06:00:05;8.8;;;5.0;;
40012;SDS011;37387;42.672;23.334;2023-05-10T06:01:04;8.8;;;5.6;;
40012;SDS011;37387;42.672;23.334;2023-05-10T06:02:04;9.0;;;5.1;;
40012;SDS011;37387;42.672;23.334;2023-05-10T06:03:04;10.8;;;6.5;;
40012;SDS011;37387;42.672;23.334;2023-05-10T06:04:04;10.8;;;6.3;;
40012;SDS011;37387;42.672;23.334;2023-05-10T06:05:04;10.1;;;6.4;;
40012;SDS011;37387;42.672;23.334;2023-05-10T06:06:04;11.1;;;7.0;;
40012;SDS011;37387;42.672;23.334;2023-05-10T06:07:04;12.1;;;6.1;;
40012;SDS011;37387;42.672;23.334;2023-05-10T06:08:04;12.1;;;6.7;;
40012;SDS011;37387;42.672;23.334;2023-05-10T06:09:04;11.1;;;6.2;;
40012;SDS011;37387;42.672;23.334;2023-05-10T06:10:04;13.5;;;7.0;;
40012;SDS011;37387;42.672;23.334;2023-05-10T06:12:04;13.1;;;7.2;;
40012;SDS011;37387;42.672;23.334;2023-05-10T06:13:04;13.1;;;5.8;;
40012;SDS011;37387;42.672;23.334;2023-05-10T06:14:04;12.1;;;7.6;;
40012;SDS011;37387;42.672;23.334;2023-05-10T06:15:04;12.5;;;7.1;;
40012;SDS011;37387;42.672;23.334;2023-05-10T06:16:04;12.5;;;7.0;;
40012;SDS011;37387;42.672;23.334;2023-05-10T06:17:03;10.6;;;6.4;;
40012;SDS011;37387;42.672;23.334;2023-05-10T06:18:03;10.6;;;6.5;;
40012;SDS011;37387;42.672;23.334;2023-05-10T06:19:03;13.2;;;5.6;;
40012;SDS011;37387;42.672;23.334;2023-05-10T06:20:04;9.8;;;7.2;;
40012;SDS011;37387;42.672;23.334;2023-05-10T06:21:03;12.9;;;5.6;;
40012;SDS011;37387;42.672;23.334;2023-05-10T06:22:03;11.5;;;6.1;;
40012;SDS011;37387;42.672;23.334;2023-05-10T06:23:03;11.5;;;4.7;;
40012;SDS011;37387;42.672;23.334;2023-05-10T06:24:03;8.4;;;5.5;;
40012;SDS011;37387;42.672;23.334;2023-05-10T06:25:03;12.0;;;5.7;;
40012;SDS011;37387;42.672;23.334;2023-05-10T06:26:03;10.5;;;5.9;;
40012;SDS011;37387;42.672;23.334;2023-05-10T06:27:03;10.5;;;5.7;;
40012;SDS011;37387;42.672;23.334;2023-05-10T06:28:03;9.5;;;6.6;;
40012;SDS011;37387;42.672;23.334;2023-05-10T06:29:03;10.9;;;5.9;;
40012;SDS011;37387;42.672;23.334;2023-05-10T06:30:03;10.9;;;5.2;;
40012;SDS011;37387;42.672;23.334;2023-05-10T06:31:03;9.3;;;5.6;;
40012;SDS011;37387;42.672;23.334;2023-05-10T06:32:03;9.3;;;6.1;;
40012;SDS011;37387;42.672;23.334;2023-05-10T06:33:03;12.7;;;6.2;;
40012;SDS011;37387;42.672;23.334;2023-05-10T06:34:03;9.8;;;5.6;;
40012;SDS011;37387;42.672;23.334;2023-05-10T06:35:03;8.3;;;4.8;;
40012;SDS011;37387;42.672;23.334;2023-05-10T06:36:03;9.7;;;5.9;;
40012;SDS011;37387;42.672;23.334;2023-05-10T06:37:02;9.7;;;6.1;;
40012;SDS011;37387;42.672;23.334;2023-05-10T06:38:02;11.9;;;6.2;;
40012;SDS011;37387;42.672;23.334;2023-05-10T06:39:02;10.9;;;5.5;;